Time;durP1;ratioP1;P1;durP2;ratioP2;P2;SDS_P1;SDS_P2;PMS_P1;PMS_P2;Temp;Humidity;BMP_temperature;BMP_pressure;BME280_temperature;BME280_humidity;BME280_pressure;Samples;Min_cycle;Max_cycle;Signal;HPM_P1;HPM_P2
2021/07/23 00:02:12;;;;;;;4.85;3.88;;;16.40;98.50;;;;;;4978441;28;20395;-42
2021/07/23 00:04:37;;;;;;;5.80;4.10;;;16.40;98.60;;;;;;4998095;28;20057;-43
2021/07/23 00:07:03;;;;;;;4.75;3.80;;;16.40;98.60;;;;;;5020309;28;20053;-43
2021/07/23 00:09:28;;;;;;;5.38;4.20;;;16.40;98.70;;;;;;5008300;28;20026;-42
2021/07/23 00:11:54;;;;;;;5.20;3.95;;;16.40;98.70;;;;;;5021320;28;20028;-43
2021/07/23 00:14:19;;;;;;;5.50;3.80;;;16.40;98.80;;;;;;5010816;28;20275;-44
2021/07/23 00:16:45;;;;;;;5.05;3.97;;;16.40;98.80;;;;;;5017223;28;20107;-42
2021/07/23 00:19:10;;;;;;;4.65;3.63;;;16.40;98.80;;;;;;5027193;28;20036;-41
2021/07/23 00:21:36;;;;;;;4.38;3.97;;;16.40;98.80;;;;;;5019996;28;20117;-43
2021/07/23 00:24:01;;;;;;;6.32;4.22;;;16.30;98.80;;;;;;5024294;28;20068;-43
2021/07/23 00:26:27;;;;;;;5.47;4.10;;;16.30;98.90;;;;;;5021983;28;20024;-41
2021/07/23 00:28:55;;;;;;;4.50;4.00;;;16.20;99.10;;;;;;5021249;28;20540;-42
2021/07/23 00:31:21;;;;;;;4.53;4.13;;;16.10;99.20;;;;;;5025396;28;20477;-43
2021/07/23 00:33:46;;;;;;;4.75;4.32;;;16.10;99.20;;;;;;5018377;28;20063;-40
2021/07/23 00:36:12;;;;;;;5.00;3.92;;;16.10;99.20;;;;;;5027185;28;20014;-41
2021/07/23 00:38:37;;;;;;;6.40;4.47;;;16.10;99.30;;;;;;5017070;28;20029;-42
2021/07/23 00:41:03;;;;;;;5.15;4.30;;;16.00;99.40;;;;;;5026058;28;20014;-42
2021/07/23 00:43:31;;;;;;;4.55;4.13;;;16.00;99.50;;;;;;5016930;28;20101;-43
2021/07/23 00:45:57;;;;;;;5.70;4.68;;;16.00;99.50;;;;;;5028820;28;20033;-43
2021/07/23 00:48:25;;;;;;;4.57;4.10;;;16.10;99.50;;;;;;5014450;28;20040;-43
2021/07/23 00:50:51;;;;;;;4.53;4.13;;;16.10;99.50;;;;;;5028410;28;20040;-42
2021/07/23 00:53:17;;;;;;;4.97;4.35;;;16.10;99.50;;;;;;5015850;28;20481;-43
2021/07/23 00:55:47;;;;;;;5.13;4.60;;;16.10;99.50;;;;;;5027175;28;20075;-43
2021/07/23 00:58:13;;;;;;;5.03;4.53;;;16.00;99.60;;;;;;5017569;28;20018;-40
2021/07/23 01:00:40;;;;;;;4.50;4.10;;;16.00;99.90;;;;;;5027245;28;20496;-43
2021/07/23 01:03:05;;;;;;;4.97;4.47;;;16.00;99.60;;;;;;5019031;28;20022;-42
2021/07/23 01:05:31;;;;;;;5.88;4.18;;;16.00;99.70;;;;;;5024130;28;20045;-43
2021/07/23 01:07:56;;;;;;;4.55;4.07;;;15.90;99.70;;;;;;5024865;28;20026;-39
2021/07/23 01:10:22;;;;;;;5.13;4.53;;;15.90;99.80;;;;;;5025537;28;20232;-43
2021/07/23 01:12:49;;;;;;;4.78;4.35;;;15.90;99.80;;;;;;5028092;28;20087;-43
2021/07/23 01:15:14;;;;;;;5.20;4.70;;;15.90;99.80;;;;;;5014656;28;20025;-43
2021/07/23 01:17:40;;;;;;;4.70;4.30;;;15.90;99.90;;;;;;5012637;28;20288;-38
2021/07/23 01:20:20;;;;;;;5.63;5.05;;;15.90;99.80;;;;;;5010160;28;20017;-42
2021/07/23 01:22:47;;;;;;;6.63;4.50;;;15.90;99.90;;;;;;5029499;28;20103;-41
2021/07/23 01:25:13;;;;;;;7.15;5.22;;;15.90;99.90;;;;;;5021486;28;20025;-43
2021/07/23 01:27:50;;;;;;;5.20;4.20;;;15.90;99.90;;;;;;5029363;28;20396;-42
2021/07/23 01:30:16;;;;;;;4.95;4.45;;;15.90;99.90;;;;;;5020163;28;20024;-40
2021/07/23 01:32:42;;;;;;;5.20;4.65;;;15.80;99.90;;;;;;5030124;28;20531;-43
2021/07/23 01:35:08;;;;;;;5.35;4.85;;;15.80;99.90;;;;;;5020348;28;20457;-40
2021/07/23 01:37:34;;;;;;;5.45;4.95;;;15.80;99.90;;;;;;5029475;28;20250;-41
2021/07/23 01:40:00;;;;;;;6.55;4.82;;;15.80;99.90;;;;;;5018736;28;20501;-43
2021/07/23 01:42:31;;;;;;;5.53;5.00;;;15.70;99.90;;;;;;5031096;28;20035;-42
2021/07/23 01:44:59;;;;;;;5.30;4.80;;;15.60;99.90;;;;;;5018442;28;20053;-42
2021/07/23 01:47:25;;;;;;;6.50;5.18;;;15.60;99.90;;;;;;5031936;28;20026;-40
2021/07/23 01:49:51;;;;;;;6.20;4.70;;;15.60;99.90;;;;;;5020893;28;20520;-42
2021/07/23 01:52:16;;;;;;;5.07;4.57;;;15.50;99.90;;;;;;5028868;28;20477;-40
2021/07/23 01:54:42;;;;;;;4.95;4.45;;;15.50;99.90;;;;;;5022997;28;20022;-42
2021/07/23 01:57:08;;;;;;;5.95;4.47;;;15.40;99.90;;;;;;5026888;28;20033;-42
2021/07/23 01:59:34;;;;;;;5.45;4.53;;;15.40;99.90;;;;;;5024651;28;20115;-40
2021/07/23 02:02:06;;;;;;;6.30;5.22;;;15.40;99.90;;;;;;5024356;28;20029;-43
2021/07/23 02:04:33;;;;;;;6.23;5.07;;;15.30;99.90;;;;;;5025112;28;20096;-42
2021/07/23 02:07:11;;;;;;;6.45;5.03;;;15.20;99.90;;;;;;5021732;28;20048;-43
2021/07/23 02:09:46;;;;;;;5.20;4.70;;;15.20;99.90;;;;;;5027152;28;20034;-41
2021/07/23 02:12:14;;;;;;;6.65;4.40;;;15.20;99.90;;;;;;5022680;28;20067;-43
2021/07/23 02:14:43;;;;;;;5.50;4.90;;;15.20;99.90;;;;;;5024109;28;20502;-40
2021/07/23 02:17:08;;;;;;;7.00;5.00;;;15.20;99.90;;;;;;5023613;28;20439;-43
2021/07/23 02:19:34;;;;;;;5.78;5.20;;;15.20;99.90;;;;;;5028043;28;20018;-43
2021/07/23 02:21:59;;;;;;;5.75;4.90;;;15.20;99.90;;;;;;5019739;28;20017;-38
2021/07/23 02:24:25;;;;;;;5.43;4.93;;;15.20;99.90;;;;;;5029064;28;20366;-43
2021/07/23 02:26:50;;;;;;;5.70;4.72;;;15.20;99.90;;;;;;5018374;28;20381;-39
2021/07/23 02:29:18;;;;;;;7.07;5.13;;;15.20;99.90;;;;;;5030947;28;20025;-42
2021/07/23 02:31:45;;;;;;;6.75;5.05;;;15.20;99.90;;;;;;5017706;28;20113;-43
2021/07/23 02:34:10;;;;;;;5.35;4.85;;;15.10;99.90;;;;;;5030422;28;20044;-43
2021/07/23 02:36:36;;;;;;;5.40;4.90;;;15.10;99.90;;;;;;5017498;28;20382;-42
2021/07/23 02:39:01;;;;;;;5.95;5.13;;;15.10;99.90;;;;;;5029472;28;20026;-42
2021/07/23 02:41:27;;;;;;;7.65;5.75;;;15.20;99.90;;;;;;5019073;28;20046;-41
2021/07/23 02:43:52;;;;;;;6.05;5.40;;;15.20;99.90;;;;;;5027554;28;20041;-42
2021/07/23 02:46:18;;;;;;;6.13;5.32;;;15.20;99.90;;;;;;5023371;28;20022;-40
2021/07/23 02:48:43;;;;;;;5.78;5.18;;;15.10;99.90;;;;;;5023658;28;20048;-43
2021/07/23 02:51:12;;;;;;;5.95;5.40;;;15.10;99.90;;;;;;5025652;28;20096;-43
2021/07/23 02:53:38;;;;;;;6.10;5.50;;;15.10;99.90;;;;;;5022567;28;20451;-42
2021/07/23 02:56:03;;;;;;;6.97;5.53;;;15.10;99.90;;;;;;5027099;28;20513;-39
2021/07/23 02:58:29;;;;;;;5.78;5.18;;;15.10;99.90;;;;;;5019543;28;20104;-43
2021/07/23 03:00:54;;;;;;;7.07;6.05;;;15.00;99.90;;;;;;5028230;28;20018;-42
2021/07/23 03:03:20;;;;;;;6.00;5.20;;;15.00;99.90;;;;;;5018632;28;20056;-41
2021/07/23 03:05:45;;;;;;;11.73;5.22;;;15.00;99.90;;;;;;5027880;28;20136;-41
2021/07/23 03:08:11;;;;;;;6.50;5.75;;;14.90;99.90;;;;;;5017624;28;20033;-42
2021/07/23 03:10:42;;;;;;;6.43;5.70;;;14.90;99.90;;;;;;5029851;28;20021;-43
2021/07/23 03:13:10;;;;;;;6.38;5.07;;;14.80;99.90;;;;;;5017082;28;20043;-43
2021/07/23 03:15:35;;;;;;;7.70;5.53;;;14.80;99.90;;;;;;5018783;28;20018;-43
2021/07/23 03:18:01;;;;;;;7.40;6.18;;;14.80;99.90;;;;;;5022327;28;20030;-41
2021/07/23 03:20:27;;;;;;;5.85;5.30;;;14.70;99.90;;;;;;5009950;28;20080;-41
2021/07/23 03:23:02;;;;;;;7.53;5.70;;;14.70;99.90;;;;;;5019286;28;20064;-42
2021/07/23 03:25:30;;;;;;;7.13;5.85;;;14.70;99.90;;;;;;5010612;28;20030;-43
2021/07/23 03:27:56;;;;;;;6.95;5.88;;;14.70;99.90;;;;;;5019424;28;20033;-44
2021/07/23 03:30:22;;;;;;;6.75;6.05;;;14.70;99.90;;;;;;5010829;28;20543;-41
2021/07/23 03:32:47;;;;;;;7.28;6.05;;;14.70;99.90;;;;;;5016415;28;20373;-42
2021/07/23 03:35:13;;;;;;;6.88;5.55;;;14.60;99.90;;;;;;5015972;28;20315;-42
2021/07/23 03:37:39;;;;;;;6.72;5.90;;;14.60;99.90;;;;;;5012042;28;20426;-43
2021/07/23 03:40:06;;;;;;;6.70;6.03;;;14.60;99.90;;;;;;5017292;28;20057;-43
2021/07/23 03:42:32;;;;;;;7.00;6.07;;;14.60;99.90;;;;;;5010783;28;20037;-42
2021/07/23 03:44:58;;;;;;;6.78;6.05;;;14.60;99.90;;;;;;5019492;28;20026;-42
2021/07/23 03:47:24;;;;;;;9.05;6.03;;;14.60;99.90;;;;;;5010264;28;20460;-43
2021/07/23 03:49:50;;;;;;;6.53;5.78;;;14.60;99.90;;;;;;5019724;28;20076;-43
2021/07/23 03:52:15;;;;;;;7.22;5.80;;;14.50;99.90;;;;;;5009369;28;20030;-44
2021/07/23 03:54:41;;;;;;;6.82;6.07;;;14.50;99.90;;;;;;5020570;28;20018;-41
2021/07/23 03:57:06;;;;;;;6.40;5.80;;;14.50;99.90;;;;;;5009716;28;20022;-43
2021/07/23 03:59:35;;;;;;;8.10;6.07;;;14.50;99.90;;;;;;5020682;28;20025;-40
2021/07/23 04:02:01;;;;;;;8.85;5.70;;;14.50;99.90;;;;;;5009156;28;20183;-38
2021/07/23 04:04:27;;;;;;;7.93;6.00;;;14.50;99.90;;;;;;5019307;28;20060;-43
2021/07/23 04:06:59;;;;;;;8.52;6.25;;;14.50;99.90;;;;;;5008267;28;20537;-41
2021/07/23 04:09:26;;;;;;;9.00;6.70;;;14.50;99.90;;;;;;5018393;28;20358;-42
2021/07/23 04:11:52;;;;;;;7.93;6.50;;;14.50;99.90;;;;;;5010569;28;20026;-42
2021/07/23 04:14:18;;;;;;;7.10;6.30;;;14.50;99.90;;;;;;5016298;28;20477;-42
2021/07/23 04:16:44;;;;;;;7.20;6.43;;;14.50;99.90;;;;;;5008875;28;20029;-43
2021/07/23 04:19:10;;;;;;;8.27;6.45;;;14.50;99.90;;;;;;5013174;28;20017;-42
2021/07/23 04:21:36;;;;;;;8.10;6.03;;;14.50;99.90;;;;;;5015525;28;20028;-43
2021/07/23 04:24:11;;;;;;;7.78;6.50;;;14.50;99.90;;;;;;5011210;28;20021;-41
2021/07/23 04:26:36;;;;;;;7.30;6.60;;;14.50;99.90;;;;;;5016671;28;20033;-41
2021/07/23 04:29:02;;;;;;;8.35;6.80;;;14.50;99.90;;;;;;5010338;28;20030;-42
2021/07/23 04:31:28;;;;;;;8.07;6.47;;;14.40;99.90;;;;;;5019281;28;20026;-40
2021/07/23 04:33:58;;;;;;;8.48;6.65;;;14.40;99.90;;;;;;5009844;28;20025;-43
2021/07/23 04:36:23;;;;;;;8.38;7.20;;;14.40;99.90;;;;;;5019137;28;20505;-41
2021/07/23 04:38:49;;;;;;;9.48;7.13;;;14.40;99.90;;;;;;5009284;28;20022;-42
2021/07/23 04:41:15;;;;;;;8.90;6.93;;;14.40;99.90;;;;;;5020938;28;20029;-43
2021/07/23 04:43:40;;;;;;;9.57;6.90;;;14.40;99.90;;;;;;5012376;28;20029;-42
2021/07/23 04:46:07;;;;;;;8.93;7.20;;;14.40;99.90;;;;;;5024637;28;20022;-41
2021/07/23 04:48:35;;;;;;;7.60;6.22;;;14.40;99.90;;;;;;5012333;28;20025;-38
2021/07/23 04:51:01;;;;;;;8.68;6.55;;;14.40;99.90;;;;;;5023980;28;20096;-43
2021/07/23 04:53:27;;;;;;;7.18;6.32;;;14.40;99.90;;;;;;5012830;28;20057;-42
2021/07/23 04:55:59;;;;;;;7.13;6.20;;;14.50;99.90;;;;;;5020022;28;20072;-42
2021/07/23 04:58:24;;;;;;;7.25;6.22;;;14.50;99.90;;;;;;5015090;28;20133;-41
2021/07/23 05:00:52;;;;;;;7.40;6.00;;;14.50;99.90;;;;;;5019346;28;20718;-43
2021/07/23 05:03:18;;;;;;;6.68;5.65;;;14.60;99.90;;;;;;5017041;28;20034;-42
2021/07/23 05:05:45;;;;;;;6.93;5.65;;;14.60;99.90;;;;;;5017255;28;20068;-41
2021/07/23 05:08:13;;;;;;;5.65;4.82;;;14.70;99.90;;;;;;5018979;28;20046;-41
2021/07/23 05:10:45;;;;;;;5.95;4.55;;;14.70;99.90;;;;;;5014943;28;20619;-42
2021/07/23 05:13:11;;;;;;;5.03;4.53;;;14.80;99.90;;;;;;5021236;28;20026;-40
2021/07/23 05:15:39;;;;;;;6.13;4.45;;;14.80;99.90;;;;;;5019177;28;20029;-42
2021/07/23 05:18:05;;;;;;;5.00;4.45;;;14.90;99.90;;;;;;5021597;28;20447;-41
2021/07/23 05:20:34;;;;;;;6.07;4.63;;;15.00;99.90;;;;;;5030392;28;20030;-42
2021/07/23 05:23:07;;;;;;;6.40;4.10;;;15.00;99.90;;;;;;5020267;28;20018;-43
2021/07/23 05:25:33;;;;;;;5.90;4.30;;;15.10;99.90;;;;;;5028955;28;20117;-42
2021/07/23 05:27:59;;;;;;;4.28;3.88;;;15.20;99.90;;;;;;5020398;28;20104;-41
2021/07/23 05:30:25;;;;;;;6.45;5.22;;;15.20;99.90;;;;;;5030377;28;20044;-41
2021/07/23 05:32:53;;;;;;;5.30;4.72;;;15.30;99.90;;;;;;5018682;28;20045;-42
2021/07/23 05:35:19;;;;;;;4.90;4.30;;;15.30;99.90;;;;;;5031718;28;20013;-42
2021/07/23 05:37:45;;;;;;;5.55;4.15;;;15.40;99.90;;;;;;5017565;28;20037;-43
2021/07/23 05:40:11;;;;;;;5.10;4.60;;;15.40;99.90;;;;;;5031228;28;20465;-41
2021/07/23 05:42:37;;;;;;;4.55;4.03;;;15.50;99.90;;;;;;5019334;28;20036;-41
2021/07/23 05:45:03;;;;;;;6.13;4.32;;;15.50;99.90;;;;;;5030197;28;20112;-41
2021/07/23 05:47:29;;;;;;;4.93;4.35;;;15.60;99.90;;;;;;5019253;28;20103;-42
2021/07/23 05:49:54;;;;;;;6.25;4.18;;;15.60;99.90;;;;;;5015552;28;20026;-42
2021/07/23 05:52:20;;;;;;;6.82;4.13;;;15.70;99.90;;;;;;5016832;28;20036;-41
2021/07/23 05:54:45;;;;;;;5.13;4.30;;;15.70;99.90;;;;;;5014543;28;20033;-42
2021/07/23 05:57:11;;;;;;;4.75;3.40;;;15.70;99.90;;;;;;5011626;28;20385;-39
2021/07/23 05:59:39;;;;;;;4.65;3.70;;;15.80;99.90;;;;;;5019453;28;20026;-42
2021/07/23 06:02:05;;;;;;;4.15;3.60;;;15.90;99.90;;;;;;5012273;28;20113;-45
2021/07/23 06:04:30;;;;;;;5.38;3.40;;;15.90;99.90;;;;;;5020833;28;20327;-46
2021/07/23 06:06:56;;;;;;;4.53;3.22;;;15.90;99.90;;;;;;5011960;28;20026;-44
2021/07/23 06:09:22;;;;;;;3.47;3.17;;;16.00;99.90;;;;;;5020817;28;20481;-42
2021/07/23 06:11:47;;;;;;;3.75;3.33;;;16.10;99.90;;;;;;5009944;28;20045;-41
2021/07/23 06:14:13;;;;;;;3.47;3.17;;;16.10;99.90;;;;;;5023017;28;20052;-40
2021/07/23 06:16:43;;;;;;;3.30;2.97;;;16.10;99.90;;;;;;5026803;28;20521;-44
2021/07/23 06:19:09;;;;;;;4.47;3.10;;;16.20;99.90;;;;;;5016790;28;20061;-42
2021/07/23 06:21:35;;;;;;;3.25;2.95;;;16.20;99.90;;;;;;5029341;28;20112;-41
2021/07/23 06:24:00;;;;;;;7.07;3.17;;;16.30;99.90;;;;;;5019077;28;20038;-42
2021/07/23 06:26:27;;;;;;;3.33;2.95;;;16.30;99.90;;;;;;5027194;28;20527;-45
2021/07/23 06:28:53;;;;;;;3.30;2.97;;;16.40;99.90;;;;;;5020201;28;20560;-39
2021/07/23 06:31:18;;;;;;;4.68;3.05;;;16.50;99.90;;;;;;5025558;28;20029;-44
2021/07/23 06:33:44;;;;;;;3.20;2.90;;;16.60;99.90;;;;;;5022800;28;20014;-44
2021/07/23 06:36:09;;;;;;;3.55;2.90;;;16.70;99.90;;;;;;4998203;28;20422;-46
2021/07/23 06:38:35;;;;;;;4.60;3.05;;;16.80;99.90;;;;;;5000042;28;20022;-45
2021/07/23 06:41:03;;;;;;;5.30;2.83;;;16.90;99.90;;;;;;5018658;28;20029;-44
2021/07/23 06:43:29;;;;;;;4.55;3.05;;;17.00;99.90;;;;;;5010465;28;20022;-45
2021/07/23 06:45:56;;;;;;;4.80;3.50;;;17.20;99.90;;;;;;5019942;28;20484;-42
2021/07/23 06:48:22;;;;;;;4.82;3.38;;;17.40;99.90;;;;;;5011029;28;20042;-42
2021/07/23 06:50:51;;;;;;;3.70;3.40;;;17.60;99.90;;;;;;5021232;28;20021;-45
2021/07/23 06:53:17;;;;;;;3.92;3.47;;;17.70;99.90;;;;;;5009691;28;20033;-46
2021/07/23 06:55:43;;;;;;;3.95;3.15;;;17.90;99.60;;;;;;5016525;28;20101;-40
2021/07/23 06:58:09;;;;;;;4.65;3.90;;;18.00;99.50;;;;;;5029646;28;20030;-43
2021/07/23 07:00:35;;;;;;;5.82;3.40;;;18.10;99.30;;;;;;5016584;28;20519;-46
2021/07/23 07:03:01;;;;;;;5.78;3.42;;;18.20;99.20;;;;;;5030478;28;20443;-46
2021/07/23 07:05:28;;;;;;;4.57;3.47;;;18.30;98.90;;;;;;5017700;28;20045;-45
2021/07/23 07:07:53;;;;;;;3.60;3.25;;;18.40;98.80;;;;;;5028081;28;20485;-42
2021/07/23 07:10:20;;;;;;;6.95;3.05;;;18.50;98.70;;;;;;5020016;28;20046;-44
2021/07/23 07:12:45;;;;;;;4.13;3.28;;;18.60;98.60;;;;;;5026170;28;20028;-44
2021/07/23 07:15:11;;;;;;;4.18;2.95;;;18.70;98.40;;;;;;5020477;28;20033;-46
2021/07/23 07:17:37;;;;;;;3.30;2.55;;;18.80;98.30;;;;;;5010661;28;20389;-45
2021/07/23 07:20:04;;;;;;;4.13;3.10;;;18.80;98.10;;;;;;5017707;28;20484;-42
2021/07/23 07:22:29;;;;;;;4.38;3.40;;;18.80;97.80;;;;;;5020559;28;20116;-44
2021/07/23 07:24:55;;;;;;;4.47;3.63;;;18.80;97.90;;;;;;5028683;28;20093;-41
2021/07/23 07:27:20;;;;;;;5.78;3.58;;;18.80;97.80;;;;;;5007872;28;20032;-44
2021/07/23 07:29:49;;;;;;;6.35;3.70;;;18.90;97.80;;;;;;5027822;28;20022;-42
2021/07/23 07:32:14;;;;;;;4.53;3.50;;;18.90;97.60;;;;;;5013133;28;20021;-46
2021/07/23 07:34:40;;;;;;;4.47;3.50;;;18.90;97.60;;;;;;5028603;28;20174;-45
2021/07/23 07:37:05;;;;;;;3.85;3.50;;;18.90;97.60;;;;;;5015713;28;20519;-45
2021/07/23 07:39:32;;;;;;;4.80;3.50;;;18.90;97.50;;;;;;5029569;28;20473;-43
2021/07/23 07:41:58;;;;;;;4.07;3.50;;;18.90;97.50;;;;;;5017220;28;20022;-45
2021/07/23 07:44:24;;;;;;;3.58;3.25;;;19.00;97.50;;;;;;5029578;28;20014;-43
2021/07/23 07:46:49;;;;;;;5.53;3.45;;;19.00;97.50;;;;;;5017873;28;20022;-45
2021/07/23 07:49:16;;;;;;;4.32;3.65;;;19.00;97.50;;;;;;5015539;28;20485;-44
2021/07/23 07:51:42;;;;;;;4.75;3.80;;;19.00;97.40;;;;;;5018029;28;20025;-45
2021/07/23 07:54:08;;;;;;;3.97;3.58;;;19.10;97.40;;;;;;5011244;28;20370;-44
2021/07/23 07:56:33;;;;;;;3.97;3.38;;;19.10;97.30;;;;;;5014510;28;20048;-42
2021/07/23 07:58:59;;;;;;;5.30;3.85;;;19.10;97.30;;;;;;5015786;28;20080;-42
2021/07/23 08:01:24;;;;;;;4.60;3.33;;;19.10;97.20;;;;;;5011940;28;20030;-45
2021/07/23 08:03:50;;;;;;;4.63;3.45;;;19.10;97.20;;;;;;5017263;28;20433;-42
2021/07/23 08:06:33;;;;;;;4.88;3.95;;;19.30;97.20;;;;;;5010586;28;20021;-43
2021/07/23 08:09:05;;;;;;;4.57;3.38;;;19.40;97.10;;;;;;5011215;28;20036;-44
2021/07/23 08:11:32;;;;;;;4.40;3.33;;;19.50;97.00;;;;;;5025882;28;20088;-42
2021/07/23 08:13:58;;;;;;;4.85;3.45;;;19.60;96.90;;;;;;5018509;28;20026;-42
2021/07/23 08:16:23;;;;;;;3.85;3.30;;;19.70;96.70;;;;;;5015694;28;20026;-45
2021/07/23 08:18:49;;;;;;;4.68;3.40;;;19.70;96.60;;;;;;5019576;28;20037;-43
2021/07/23 08:21:14;;;;;;;5.13;3.10;;;19.70;96.60;;;;;;5009645;28;20104;-43
2021/07/23 08:23:40;;;;;;;3.47;3.15;;;19.80;96.50;;;;;;5020205;28;20466;-45
2021/07/23 08:26:06;;;;;;;5.05;3.90;;;19.80;96.40;;;;;;5008629;28;20036;-44
2021/07/23 08:28:32;;;;;;;4.50;3.58;;;19.90;96.40;;;;;;5021083;28;20034;-45
2021/07/23 08:30:58;;;;;;;4.63;3.60;;;19.90;96.30;;;;;;5009130;28;20025;-45
2021/07/23 08:33:24;;;;;;;4.35;3.28;;;19.90;96.20;;;;;;5019016;28;20400;-37
2021/07/23 08:35:50;;;;;;;3.65;3.25;;;19.90;96.30;;;;;;5009861;28;20029;-45
2021/07/23 08:38:16;;;;;;;3.63;3.30;;;19.90;96.30;;;;;;5017297;28;20025;-45
2021/07/23 08:40:42;;;;;;;4.95;3.75;;;20.00;96.30;;;;;;5011369;28;20030;-42
2021/07/23 08:43:08;;;;;;;4.60;3.95;;;20.10;96.30;;;;;;5014276;28;20022;-44
2021/07/23 08:45:34;;;;;;;4.00;3.58;;;20.10;96.20;;;;;;5013353;28;20022;-45
2021/07/23 08:48:00;;;;;;;5.43;3.63;;;20.10;96.30;;;;;;5009842;28;20034;-41
2021/07/23 08:50:26;;;;;;;4.35;3.70;;;20.10;96.10;;;;;;5016953;28;20018;-42
2021/07/23 08:52:54;;;;;;;4.10;3.70;;;20.10;95.90;;;;;;5009820;28;20084;-41
2021/07/23 08:55:21;;;;;;;6.10;4.20;;;20.10;96.10;;;;;;5007249;28;20051;-42
2021/07/23 08:57:47;;;;;;;6.15;4.30;;;20.10;96.10;;;;;;5027506;28;20481;-42
2021/07/23 09:00:16;;;;;;;4.45;3.80;;;20.10;96.20;;;;;;5016497;28;20013;-43
2021/07/23 09:02:58;;;;;;;5.25;3.65;;;20.10;96.30;;;;;;5026874;28;20048;-45
2021/07/23 09:05:31;;;;;;;5.60;3.65;;;20.20;96.30;;;;;;5016722;28;20046;-45
2021/07/23 09:08:10;;;;;;;3.90;3.50;;;20.40;96.20;;;;;;5009354;28;20034;-42
2021/07/23 09:10:36;;;;;;;5.40;3.83;;;20.40;96.00;;;;;;5018440;28;20137;-41
2021/07/23 09:13:02;;;;;;;5.18;3.67;;;20.50;96.00;;;;;;5008748;28;20113;-39
2021/07/23 09:15:40;;;;;;;4.57;3.90;;;20.60;95.80;;;;;;5018911;28;20025;-44
2021/07/23 09:18:07;;;;;;;4.45;3.60;;;20.60;95.70;;;;;;5008458;28;20096;-43
2021/07/23 09:20:33;;;;;;;4.53;3.67;;;20.70;95.70;;;;;;5014074;28;20379;-45
2021/07/23 09:23:03;;;;;;;4.70;3.58;;;20.80;95.60;;;;;;5028705;28;20026;-45
2021/07/23 09:25:37;;;;;;;3.50;3.20;;;20.90;95.50;;;;;;5014591;28;20026;-45
2021/07/23 09:28:26;;;;;;;3.92;3.42;;;20.90;95.50;;;;;;5028757;28;20037;-44
2021/07/23 09:30:53;;;;;;;4.75;3.35;;;21.10;95.40;;;;;;5023873;28;20022;-42
2021/07/23 09:33:27;;;;;;;4.25;3.15;;;21.20;95.60;;;;;;5011611;28;20034;-40
2021/07/23 09:36:02;;;;;;;3.55;3.22;;;21.20;95.20;;;;;;5022816;28;20018;-44
2021/07/23 09:38:34;;;;;;;5.03;3.45;;;21.20;95.00;;;;;;5011360;28;20025;-40
2021/07/23 09:41:00;;;;;;;4.10;3.60;;;21.30;94.90;;;;;;5024337;28;20052;-41
2021/07/23 09:43:32;;;;;;;4.30;3.90;;;21.30;94.80;;;;;;5010558;28;20138;-44
2021/07/23 09:46:16;;;;;;;4.40;3.88;;;21.30;94.50;;;;;;5024214;28;20029;-42
2021/07/23 09:48:44;;;;;;;4.03;3.58;;;21.30;94.60;;;;;;5010375;28;20042;-44
2021/07/23 09:51:11;;;;;;;4.55;3.40;;;21.30;94.60;;;;;;5023838;28;20036;-45
2021/07/23 09:53:36;;;;;;;4.35;3.75;;;21.20;94.40;;;;;;5011759;28;20504;-42
2021/07/23 09:56:07;;;;;;;5.82;4.00;;;21.20;94.50;;;;;;5021615;28;20025;-44
2021/07/23 09:58:37;;;;;;;4.53;3.80;;;21.20;94.40;;;;;;5012540;28;20105;-44
2021/07/23 10:01:08;;;;;;;5.57;3.65;;;21.20;94.50;;;;;;5020184;28;20071;-45
2021/07/23 10:03:36;;;;;;;6.93;4.23;;;21.20;94.40;;;;;;5013247;28;20085;-39
2021/07/23 10:06:04;;;;;;;4.50;3.70;;;21.10;94.40;;;;;;5018198;28;20292;-42
2021/07/23 10:08:33;;;;;;;4.10;3.70;;;21.20;94.50;;;;;;5014787;28;20562;-43
2021/07/23 10:11:03;;;;;;;4.40;4.00;;;21.20;94.50;;;;;;5016630;28;20014;-44
2021/07/23 10:13:30;;;;;;;4.95;4.07;;;21.30;94.40;;;;;;5016502;28;20128;-45
2021/07/23 10:15:57;;;;;;;5.32;3.60;;;21.40;94.30;;;;;;5016244;28;20021;-42
2021/07/23 10:18:23;;;;;;;4.22;3.70;;;21.40;94.20;;;;;;5021565;28;20029;-42
2021/07/23 10:20:49;;;;;;;4.05;3.65;;;21.40;94.10;;;;;;5029478;28;20017;-45
2021/07/23 10:23:18;;;;;;;3.78;3.38;;;21.50;94.20;;;;;;5019992;28;20037;-44
2021/07/23 10:25:46;;;;;;;5.32;3.80;;;21.60;94.00;;;;;;5028540;28;20025;-45
2021/07/23 10:28:12;;;;;;;5.80;3.65;;;21.60;94.00;;;;;;5019246;28;20392;-45
2021/07/23 10:30:39;;;;;;;4.65;3.70;;;21.70;93.90;;;;;;5029281;28;20105;-37
2021/07/23 10:33:05;;;;;;;4.10;3.40;;;21.80;93.80;;;;;;5019120;28;20120;-40
2021/07/23 10:35:32;;;;;;;3.92;3.45;;;21.80;93.80;;;;;;5029874;28;20037;-44
2021/07/23 10:37:59;;;;;;;4.65;3.45;;;21.90;93.80;;;;;;5016822;28;20036;-43
2021/07/23 10:40:36;;;;;;;3.90;3.50;;;22.00;93.70;;;;;;5029809;28;20268;-42
2021/07/23 10:43:22;;;;;;;4.35;3.67;;;22.00;93.40;;;;;;5017438;28;20033;-44
2021/07/23 10:45:48;;;;;;;5.53;3.63;;;22.00;93.10;;;;;;5029896;28;20030;-42
2021/07/23 10:48:43;;;;;;;6.30;3.30;;;22.00;93.10;;;;;;5017458;28;20376;-44
2021/07/23 10:51:08;;;;;;;4.95;3.50;;;22.00;93.30;;;;;;5030140;28;20052;-44
2021/07/23 10:53:34;;;;;;;5.55;3.65;;;21.90;93.00;;;;;;5016368;28;20469;-44
2021/07/23 10:56:00;;;;;;;4.53;2.95;;;21.90;93.10;;;;;;5030356;28;20029;-45
2021/07/23 10:58:30;;;;;;;3.72;3.33;;;21.90;93.10;;;;;;5016731;28;20026;-42
2021/07/23 11:01:01;;;;;;;5.60;3.42;;;21.90;93.10;;;;;;5029658;28;20366;-42
2021/07/23 11:03:43;;;;;;;4.35;3.40;;;22.00;93.00;;;;;;5017617;28;20034;-44
2021/07/23 11:06:22;;;;;;;3.60;2.92;;;22.00;92.80;;;;;;4990586;28;20046;-45
2021/07/23 11:08:52;;;;;;;4.22;3.83;;;22.10;92.60;;;;;;5020072;28;20136;-45
2021/07/23 11:11:21;;;;;;;5.45;3.90;;;22.10;92.60;;;;;;5009930;28;20079;-44
2021/07/23 11:13:47;;;;;;;4.30;3.70;;;22.10;92.50;;;;;;5020469;28;20025;-44
2021/07/23 11:16:14;;;;;;;4.13;3.50;;;22.20;92.50;;;;;;5021144;28;20369;-45
2021/07/23 11:18:57;;;;;;;4.82;3.78;;;22.20;92.60;;;;;;5019940;28;20033;-43
2021/07/23 11:21:25;;;;;;;4.13;3.70;;;22.20;92.50;;;;;;5027710;28;20437;-44
2021/07/23 11:23:51;;;;;;;4.50;3.58;;;22.20;92.70;;;;;;5020094;28;20018;-45
2021/07/23 11:26:24;;;;;;;5.70;4.00;;;22.20;92.60;;;;;;5024624;28;20033;-42
2021/07/23 11:28:53;;;;;;;4.30;3.90;;;22.30;92.60;;;;;;5021696;28;20033;-41
2021/07/23 11:31:35;;;;;;;3.70;3.40;;;22.20;92.50;;;;;;5024855;28;20021;-45
2021/07/23 11:34:23;;;;;;;3.60;2.97;;;22.30;92.40;;;;;;5021932;28;20022;-44
2021/07/23 11:36:50;;;;;;;7.10;3.25;;;22.30;92.40;;;;;;5027868;28;20022;-43
2021/07/23 11:39:16;;;;;;;4.20;3.35;;;22.40;92.30;;;;;;5020195;28;20014;-44
2021/07/23 11:42:05;;;;;;;4.00;3.60;;;22.40;92.30;;;;;;5024090;28;20544;-43
2021/07/23 11:44:32;;;;;;;4.05;3.60;;;22.50;92.20;;;;;;5019529;28;20401;-43
2021/07/23 11:47:01;;;;;;;3.13;2.83;;;22.50;92.10;;;;;;5026349;28;20033;-40
2021/07/23 11:49:33;;;;;;;3.40;3.10;;;22.50;92.20;;;;;;5020406;28;20048;-45
2021/07/23 11:51:59;;;;;;;3.20;2.90;;;22.50;92.10;;;;;;5023300;28;20060;-41
2021/07/23 11:54:25;;;;;;;3.83;3.42;;;22.50;92.10;;;;;;5023521;28;20076;-45
2021/07/23 11:56:52;;;;;;;4.63;3.38;;;22.50;91.90;;;;;;5021654;28;20021;-43
2021/07/23 11:59:17;;;;;;;4.93;3.00;;;22.60;91.70;;;;;;5025220;28;20025;-46
2021/07/23 12:01:43;;;;;;;6.05;3.25;;;22.60;91.70;;;;;;5019757;28;20280;-46
2021/07/23 12:04:09;;;;;;;4.57;3.10;;;22.70;91.50;;;;;;5026674;28;20045;-45
2021/07/23 12:06:38;;;;;;;5.28;3.42;;;22.80;91.40;;;;;;5017199;28;20087;-44
2021/07/23 12:09:08;;;;;;;5.13;3.42;;;22.90;91.30;;;;;;5026419;28;20049;-46
2021/07/23 12:11:34;;;;;;;4.15;3.13;;;22.90;91.30;;;;;;5016709;28;20080;-47
2021/07/23 12:14:08;;;;;;;4.43;3.30;;;23.00;91.20;;;;;;5028297;28;20117;-47
2021/07/23 12:16:34;;;;;;;4.32;3.75;;;23.00;91.20;;;;;;5023739;28;20021;-46
2021/07/23 12:19:03;;;;;;;4.20;3.75;;;23.00;90.90;;;;;;5029121;28;20021;-43
2021/07/23 12:21:29;;;;;;;4.03;3.30;;;23.00;90.80;;;;;;5020680;28;20101;-44
2021/07/23 12:24:03;;;;;;;4.97;3.60;;;22.90;90.90;;;;;;5008948;28;20117;-46
2021/07/23 12:26:40;;;;;;;4.78;3.60;;;22.90;91.00;;;;;;5020930;28;20076;-43
2021/07/23 12:29:07;;;;;;;6.38;4.05;;;23.00;90.90;;;;;;5008000;28;20081;-46
2021/07/23 12:31:33;;;;;;;7.32;4.40;;;23.10;90.80;;;;;;5019653;28;20017;-45
2021/07/23 12:34:19;;;;;;;3.95;3.42;;;23.10;90.80;;;;;;5009377;28;20030;-46
2021/07/23 12:36:51;;;;;;;6.88;3.75;;;23.20;90.80;;;;;;5020854;28;20518;-46
2021/07/23 12:39:17;;;;;;;4.55;4.10;;;23.30;90.80;;;;;;5007689;28;20037;-43
2021/07/23 12:41:46;;;;;;;4.50;4.07;;;23.30;90.60;;;;;;5019769;28;20030;-43
2021/07/23 12:44:13;;;;;;;4.90;4.40;;;23.30;90.60;;;;;;5009491;28;20054;-43
2021/07/23 12:46:47;;;;;;;4.18;3.60;;;23.20;90.50;;;;;;5017594;28;20041;-38
2021/07/23 12:49:13;;;;;;;4.28;3.72;;;23.20;90.60;;;;;;5010589;28;20152;-42
2021/07/23 12:51:39;;;;;;;5.22;3.83;;;23.10;90.70;;;;;;5015343;28;20076;-44